sensor_id;sensor_type;location;lat;lon;timestamp;P1;durP1;ratioP1;P2;durP2;ratioP2
18505;SDS011;9382;53.242;10.438;2022-10-17T00:02:21;5.93;;;4.40;;
18505;SDS011;9382;53.242;10.438;2022-10-17T00:04:48;6.13;;;4.70;;
18505;SDS011;9382;53.242;10.438;2022-10-17T00:07:14;4.90;;;4.27;;
18505;SDS011;9382;53.242;10.438;2022-10-17T00:09:41;5.57;;;4.63;;
18505;SDS011;9382;53.242;10.438;2022-10-17T00:12:09;5.90;;;4.50;;
18505;SDS011;9382;53.242;10.438;2022-10-17T00:14:36;5.37;;;4.93;;
18505;SDS011;9382;53.242;10.438;2022-10-17T00:17:03;5.43;;;4.93;;
18505;SDS011;9382;53.242;10.438;2022-10-17T00:19:30;6.53;;;4.77;;
18505;SDS011;9382;53.242;10.438;2022-10-17T00:21:57;5.83;;;4.70;;
18505;SDS011;9382;53.242;10.438;2022-10-17T00:24:23;5.30;;;4.80;;
18505;SDS011;9382;53.242;10.438;2022-10-17T00:26:50;5.00;;;4.50;;
18505;SDS011;9382;53.242;10.438;2022-10-17T00:29:18;7.80;;;4.43;;
18505;SDS011;9382;53.242;10.438;2022-10-17T00:31:45;5.60;;;4.70;;
18505;SDS011;9382;53.242;10.438;2022-10-17T00:34:11;5.77;;;4.53;;
18505;SDS011;9382;53.242;10.438;2022-10-17T00:36:38;7.30;;;4.80;;
18505;SDS011;9382;53.242;10.438;2022-10-17T00:39:05;7.70;;;4.70;;
18505;SDS011;9382;53.242;10.438;2022-10-17T00:41:32;8.57;;;4.87;;
18505;SDS011;9382;53.242;10.438;2022-10-17T00:44:00;4.67;;;4.27;;
18505;SDS011;9382;53.242;10.438;2022-10-17T00:46:30;5.07;;;4.67;;
18505;SDS011;9382;53.242;10.438;2022-10-17T00:48:59;7.03;;;5.03;;
18505;SDS011;9382;53.242;10.438;2022-10-17T00:51:29;7.03;;;4.73;;
18505;SDS011;9382;53.242;10.438;2022-10-17T00:53:59;5.53;;;4.90;;
18505;SDS011;9382;53.242;10.438;2022-10-17T00:56:28;5.17;;;4.67;;
18505;SDS011;9382;53.242;10.438;2022-10-17T00:58:55;6.20;;;4.83;;
18505;SDS011;9382;53.242;10.438;2022-10-17T01:01:22;6.33;;;4.90;;
18505;SDS011;9382;53.242;10.438;2022-10-17T01:03:50;6.13;;;4.87;;
18505;SDS011;9382;53.242;10.438;2022-10-17T01:06:17;5.63;;;5.07;;
18505;SDS011;9382;53.242;10.438;2022-10-17T01:08:44;5.30;;;4.80;;
18505;SDS011;9382;53.242;10.438;2022-10-17T01:11:14;8.47;;;5.63;;
18505;SDS011;9382;53.242;10.438;2022-10-17T01:13:54;6.07;;;5.40;;
18505;SDS011;9382;53.242;10.438;2022-10-17T01:16:30;7.10;;;5.10;;
18505;SDS011;9382;53.242;10.438;2022-10-17T01:19:08;6.10;;;5.50;;
18505;SDS011;9382;53.242;10.438;2022-10-17T01:21:58;5.90;;;5.30;;
18505;SDS011;9382;53.242;10.438;2022-10-17T01:24:46;6.87;;;5.80;;
18505;SDS011;9382;53.242;10.438;2022-10-17T01:33:30;5.77;;;5.23;;
18505;SDS011;9382;53.242;10.438;2022-10-17T01:36:03;7.20;;;5.30;;
18505;SDS011;9382;53.242;10.438;2022-10-17T01:38:35;6.07;;;4.70;;
18505;SDS011;9382;53.242;10.438;2022-10-17T01:41:09;5.10;;;4.60;;
18505;SDS011;9382;53.242;10.438;2022-10-17T01:43:46;5.50;;;4.37;;
18505;SDS011;9382;53.242;10.438;2022-10-17T01:46:19;4.30;;;3.90;;
18505;SDS011;9382;53.242;10.438;2022-10-17T01:48:50;4.20;;;3.90;;
18505;SDS011;9382;53.242;10.438;2022-10-17T01:51:20;4.43;;;4.03;;
18505;SDS011;9382;53.242;10.438;2022-10-17T01:53:53;4.50;;;3.90;;
18505;SDS011;9382;53.242;10.438;2022-10-17T01:56:24;4.27;;;3.70;;
18505;SDS011;9382;53.242;10.438;2022-10-17T01:58:54;3.87;;;3.67;;
18505;SDS011;9382;53.242;10.438;2022-10-17T02:01:26;4.20;;;3.80;;
18505;SDS011;9382;53.242;10.438;2022-10-17T02:03:55;4.63;;;3.80;;
18505;SDS011;9382;53.242;10.438;2022-10-17T02:06:24;6.73;;;4.50;;
18505;SDS011;9382;53.242;10.438;2022-10-17T02:08:51;6.83;;;5.13;;
18505;SDS011;9382;53.242;10.438;2022-10-17T02:11:18;7.37;;;5.07;;
18505;SDS011;9382;53.242;10.438;2022-10-17T02:13:51;8.03;;;4.63;;
18505;SDS011;9382;53.242;10.438;2022-10-17T02:16:39;5.70;;;4.93;;
18505;SDS011;9382;53.242;10.438;2022-10-17T02:19:19;6.63;;;4.90;;
18505;SDS011;9382;53.242;10.438;2022-10-17T02:22:09;6.10;;;5.47;;
18505;SDS011;9382;53.242;10.438;2022-10-17T02:24:44;6.23;;;5.13;;
18505;SDS011;9382;53.242;10.438;2022-10-17T02:27:16;6.60;;;4.87;;
18505;SDS011;9382;53.242;10.438;2022-10-17T02:29:53;5.87;;;5.33;;
18505;SDS011;9382;53.242;10.438;2022-10-17T02:32:25;7.30;;;5.20;;
18505;SDS011;9382;53.242;10.438;2022-10-17T02:34:58;8.53;;;5.00;;
18505;SDS011;9382;53.242;10.438;2022-10-17T02:37:27;9.27;;;4.93;;
18505;SDS011;9382;53.242;10.438;2022-10-17T02:39:56;6.50;;;4.97;;
18505;SDS011;9382;53.242;10.438;2022-10-17T02:42:25;6.07;;;4.40;;
18505;SDS011;9382;53.242;10.438;2022-10-17T02:44:54;4.60;;;4.20;;
18505;SDS011;9382;53.242;10.438;2022-10-17T02:47:26;9.07;;;4.60;;
18505;SDS011;9382;53.242;10.438;2022-10-17T02:49:58;5.43;;;4.20;;
18505;SDS011;9382;53.242;10.438;2022-10-17T02:52:26;4.10;;;3.70;;
18505;SDS011;9382;53.242;10.438;2022-10-17T02:55:00;3.63;;;3.30;;
18505;SDS011;9382;53.242;10.438;2022-10-17T02:57:33;5.17;;;3.53;;
18505;SDS011;9382;53.242;10.438;2022-10-17T03:00:04;8.63;;;4.00;;
18505;SDS011;9382;53.242;10.438;2022-10-17T03:02:39;4.30;;;3.87;;
18505;SDS011;9382;53.242;10.438;2022-10-17T03:05:07;3.73;;;3.43;;
18505;SDS011;9382;53.242;10.438;2022-10-17T03:07:34;3.80;;;3.50;;
18505;SDS011;9382;53.242;10.438;2022-10-17T03:10:01;5.30;;;3.57;;
18505;SDS011;9382;53.242;10.438;2022-10-17T03:12:28;4.30;;;3.40;;
18505;SDS011;9382;53.242;10.438;2022-10-17T03:14:54;6.90;;;3.50;;
18505;SDS011;9382;53.242;10.438;2022-10-17T03:17:21;4.33;;;3.43;;
18505;SDS011;9382;53.242;10.438;2022-10-17T03:19:49;3.30;;;3.00;;
18505;SDS011;9382;53.242;10.438;2022-10-17T03:22:16;4.40;;;3.27;;
18505;SDS011;9382;53.242;10.438;2022-10-17T03:24:43;5.57;;;2.90;;
18505;SDS011;9382;53.242;10.438;2022-10-17T03:27:09;3.93;;;3.00;;
18505;SDS011;9382;53.242;10.438;2022-10-17T03:29:36;3.53;;;2.80;;
18505;SDS011;9382;53.242;10.438;2022-10-17T03:32:03;4.97;;;2.90;;
18505;SDS011;9382;53.242;10.438;2022-10-17T03:34:30;4.07;;;2.90;;
18505;SDS011;9382;53.242;10.438;2022-10-17T03:36:58;2.67;;;2.47;;
18505;SDS011;9382;53.242;10.438;2022-10-17T03:39:25;4.30;;;2.70;;
18505;SDS011;9382;53.242;10.438;2022-10-17T03:41:52;6.43;;;2.83;;
18505;SDS011;9382;53.242;10.438;2022-10-17T03:44:18;2.90;;;2.70;;
18505;SDS011;9382;53.242;10.438;2022-10-17T03:46:45;3.23;;;2.93;;
18505;SDS011;9382;53.242;10.438;2022-10-17T03:49:12;2.70;;;2.50;;
18505;SDS011;9382;53.242;10.438;2022-10-17T03:51:38;3.07;;;2.20;;
18505;SDS011;9382;53.242;10.438;2022-10-17T03:54:06;2.40;;;2.20;;
18505;SDS011;9382;53.242;10.438;2022-10-17T03:56:33;2.43;;;2.27;;
18505;SDS011;9382;53.242;10.438;2022-10-17T03:59:00;2.63;;;2.43;;
18505;SDS011;9382;53.242;10.438;2022-10-17T04:01:27;6.17;;;2.10;;
18505;SDS011;9382;53.242;10.438;2022-10-17T04:03:54;2.47;;;2.20;;
18505;SDS011;9382;53.242;10.438;2022-10-17T04:06:21;3.13;;;2.20;;
18505;SDS011;9382;53.242;10.438;2022-10-17T04:08:49;4.33;;;2.40;;
18505;SDS011;9382;53.242;10.438;2022-10-17T04:11:18;3.03;;;1.97;;
18505;SDS011;9382;53.242;10.438;2022-10-17T04:13:46;5.47;;;2.17;;
18505;SDS011;9382;53.242;10.438;2022-10-17T04:16:17;2.37;;;2.17;;
18505;SDS011;9382;53.242;10.438;2022-10-17T04:18:43;4.20;;;2.10;;
18505;SDS011;9382;53.242;10.438;2022-10-17T04:21:10;2.40;;;2.10;;
18505;SDS011;9382;53.242;10.438;2022-10-17T04:23:38;2.50;;;2.30;;
18505;SDS011;9382;53.242;10.438;2022-10-17T04:26:05;2.40;;;2.00;;
18505;SDS011;9382;53.242;10.438;2022-10-17T04:28:33;3.47;;;2.20;;
18505;SDS011;9382;53.242;10.438;2022-10-17T04:31:02;3.47;;;2.30;;
18505;SDS011;9382;53.242;10.438;2022-10-17T04:33:30;3.63;;;2.60;;
18505;SDS011;9382;53.242;10.438;2022-10-17T04:35:57;2.70;;;2.50;;
18505;SDS011;9382;53.242;10.438;2022-10-17T04:38:25;2.73;;;2.47;;
18505;SDS011;9382;53.242;10.438;2022-10-17T04:40:52;2.37;;;2.20;;
18505;SDS011;9382;53.242;10.438;2022-10-17T04:43:19;3.47;;;2.40;;
18505;SDS011;9382;53.242;10.438;2022-10-17T04:45:47;3.73;;;2.60;;
18505;SDS011;9382;53.242;10.438;2022-10-17T04:48:14;4.07;;;2.73;;
18505;SDS011;9382;53.242;10.438;2022-10-17T04:50:40;2.80;;;2.47;;
18505;SDS011;9382;53.242;10.438;2022-10-17T04:53:07;7.67;;;2.87;;
18505;SDS011;9382;53.242;10.438;2022-10-17T04:55:36;4.50;;;2.60;;
18505;SDS011;9382;53.242;10.438;2022-10-17T04:58:03;2.50;;;2.30;;
18505;SDS011;9382;53.242;10.438;2022-10-17T05:00:30;3.23;;;2.47;;
18505;SDS011;9382;53.242;10.438;2022-10-17T05:02:58;3.47;;;2.20;;
18505;SDS011;9382;53.242;10.438;2022-10-17T05:05:25;2.90;;;2.47;;
18505;SDS011;9382;53.242;10.438;2022-10-17T05:07:52;3.10;;;2.43;;
18505;SDS011;9382;53.242;10.438;2022-10-17T05:10:18;2.43;;;2.23;;
18505;SDS011;9382;53.242;10.438;2022-10-17T05:12:45;3.30;;;2.47;;
18505;SDS011;9382;53.242;10.438;2022-10-17T05:15:12;6.97;;;2.47;;
18505;SDS011;9382;53.242;10.438;2022-10-17T05:17:39;2.53;;;2.37;;
18505;SDS011;9382;53.242;10.438;2022-10-17T05:20:08;3.93;;;2.30;;
18505;SDS011;9382;53.242;10.438;2022-10-17T05:22:35;4.03;;;2.67;;
18505;SDS011;9382;53.242;10.438;2022-10-17T05:25:02;4.20;;;2.50;;
18505;SDS011;9382;53.242;10.438;2022-10-17T05:27:29;3.10;;;2.23;;
18505;SDS011;9382;53.242;10.438;2022-10-17T05:29:56;3.67;;;2.40;;
18505;SDS011;9382;53.242;10.438;2022-10-17T05:32:22;3.50;;;2.40;;
18505;SDS011;9382;53.242;10.438;2022-10-17T05:34:49;3.30;;;2.60;;
18505;SDS011;9382;53.242;10.438;2022-10-17T05:37:17;3.43;;;2.60;;
18505;SDS011;9382;53.242;10.438;2022-10-17T05:39:44;3.27;;;2.60;;
18505;SDS011;9382;53.242;10.438;2022-10-17T05:42:11;2.70;;;2.50;;
18505;SDS011;9382;53.242;10.438;2022-10-17T05:44:37;2.70;;;2.50;;
18505;SDS011;9382;53.242;10.438;2022-10-17T05:47:05;2.60;;;2.50;;
18505;SDS011;9382;53.242;10.438;2022-10-17T05:49:32;2.90;;;2.60;;
18505;SDS011;9382;53.242;10.438;2022-10-17T05:51:59;3.60;;;2.57;;
18505;SDS011;9382;53.242;10.438;2022-10-17T05:54:27;3.00;;;2.70;;
18505;SDS011;9382;53.242;10.438;2022-10-17T05:56:54;4.67;;;2.60;;
18505;SDS011;9382;53.242;10.438;2022-10-17T05:59:23;3.10;;;2.80;;
18505;SDS011;9382;53.242;10.438;2022-10-17T06:01:50;3.07;;;2.77;;
18505;SDS011;9382;53.242;10.438;2022-10-17T06:04:17;2.97;;;2.67;;
18505;SDS011;9382;53.242;10.438;2022-10-17T06:06:43;3.77;;;2.83;;
18505;SDS011;9382;53.242;10.438;2022-10-17T06:09:10;5.83;;;3.17;;
18505;SDS011;9382;53.242;10.438;2022-10-17T06:11:38;3.53;;;2.60;;
18505;SDS011;9382;53.242;10.438;2022-10-17T06:14:05;3.57;;;3.20;;
18505;SDS011;9382;53.242;10.438;2022-10-17T06:16:32;6.33;;;3.17;;
18505;SDS011;9382;53.242;10.438;2022-10-17T06:19:00;3.27;;;2.97;;
18505;SDS011;9382;53.242;10.438;2022-10-17T06:21:27;3.77;;;3.47;;
18505;SDS011;9382;53.242;10.438;2022-10-17T06:23:54;3.53;;;3.23;;
18505;SDS011;9382;53.242;10.438;2022-10-17T06:26:20;3.33;;;3.13;;
18505;SDS011;9382;53.242;10.438;2022-10-17T06:28:48;5.37;;;3.80;;
18505;SDS011;9382;53.242;10.438;2022-10-17T06:31:15;5.20;;;3.70;;
18505;SDS011;9382;53.242;10.438;2022-10-17T06:33:42;4.90;;;3.40;;
18505;SDS011;9382;53.242;10.438;2022-10-17T06:36:10;3.90;;;3.47;;
18505;SDS011;9382;53.242;10.438;2022-10-17T06:38:38;4.77;;;3.70;;
18505;SDS011;9382;53.242;10.438;2022-10-17T06:41:06;4.83;;;3.67;;
18505;SDS011;9382;53.242;10.438;2022-10-17T06:43:33;4.40;;;4.00;;
18505;SDS011;9382;53.242;10.438;2022-10-17T06:46:02;4.70;;;4.03;;
18505;SDS011;9382;53.242;10.438;2022-10-17T06:48:29;6.90;;;4.00;;
18505;SDS011;9382;53.242;10.438;2022-10-17T06:50:57;5.03;;;3.80;;
18505;SDS011;9382;53.242;10.438;2022-10-17T06:53:25;5.77;;;4.20;;
18505;SDS011;9382;53.242;10.438;2022-10-17T06:55:52;5.53;;;3.90;;
18505;SDS011;9382;53.242;10.438;2022-10-17T06:58:25;5.87;;;4.00;;
18505;SDS011;9382;53.242;10.438;2022-10-17T07:00:51;4.10;;;3.80;;
18505;SDS011;9382;53.242;10.438;2022-10-17T07:03:24;5.30;;;3.80;;
18505;SDS011;9382;53.242;10.438;2022-10-17T07:05:51;4.70;;;3.90;;
18505;SDS011;9382;53.242;10.438;2022-10-17T07:08:17;5.77;;;4.07;;
18505;SDS011;9382;53.242;10.438;2022-10-17T07:10:44;4.17;;;3.70;;
18505;SDS011;9382;53.242;10.438;2022-10-17T07:13:11;4.50;;;3.60;;
18505;SDS011;9382;53.242;10.438;2022-10-17T07:15:38;5.80;;;3.97;;
18505;SDS011;9382;53.242;10.438;2022-10-17T07:18:06;4.43;;;3.60;;
18505;SDS011;9382;53.242;10.438;2022-10-17T07:20:34;3.70;;;3.30;;
18505;SDS011;9382;53.242;10.438;2022-10-17T07:23:01;3.43;;;3.13;;
18505;SDS011;9382;53.242;10.438;2022-10-17T07:25:28;3.93;;;3.23;;
18505;SDS011;9382;53.242;10.438;2022-10-17T07:27:55;4.80;;;3.10;;
18505;SDS011;9382;53.242;10.438;2022-10-17T07:30:22;3.40;;;3.10;;
18505;SDS011;9382;53.242;10.438;2022-10-17T07:32:51;5.10;;;3.00;;
18505;SDS011;9382;53.242;10.438;2022-10-17T07:35:17;3.57;;;3.07;;
18505;SDS011;9382;53.242;10.438;2022-10-17T07:37:46;3.60;;;2.90;;
18505;SDS011;9382;53.242;10.438;2022-10-17T07:40:13;6.43;;;3.13;;
18505;SDS011;9382;53.242;10.438;2022-10-17T07:42:40;2.73;;;2.53;;
18505;SDS011;9382;53.242;10.438;2022-10-17T07:45:07;3.90;;;3.37;;
18505;SDS011;9382;53.242;10.438;2022-10-17T07:47:34;5.67;;;3.40;;
18505;SDS011;9382;53.242;10.438;2022-10-17T07:50:01;3.20;;;3.00;;
18505;SDS011;9382;53.242;10.438;2022-10-17T07:52:28;3.80;;;3.20;;
18505;SDS011;9382;53.242;10.438;2022-10-17T07:54:56;5.33;;;3.27;;
18505;SDS011;9382;53.242;10.438;2022-10-17T07:57:23;7.87;;;3.33;;
18505;SDS011;9382;53.242;10.438;2022-10-17T07:59:49;5.80;;;3.57;;
18505;SDS011;9382;53.242;10.438;2022-10-17T08:02:19;5.23;;;3.00;;
18505;SDS011;9382;53.242;10.438;2022-10-17T08:04:47;5.63;;;3.20;;
18505;SDS011;9382;53.242;10.438;2022-10-17T08:07:14;5.43;;;3.40;;
18505;SDS011;9382;53.242;10.438;2022-10-17T08:09:41;5.23;;;3.33;;
18505;SDS011;9382;53.242;10.438;2022-10-17T08:12:09;3.53;;;3.23;;
18505;SDS011;9382;53.242;10.438;2022-10-17T08:14:36;4.13;;;3.10;;
18505;SDS011;9382;53.242;10.438;2022-10-17T08:17:03;5.57;;;2.93;;
18505;SDS011;9382;53.242;10.438;2022-10-17T08:19:29;4.77;;;2.80;;
18505;SDS011;9382;53.242;10.438;2022-10-17T08:21:56;4.57;;;3.03;;
18505;SDS011;9382;53.242;10.438;2022-10-17T08:24:23;6.43;;;2.60;;
18505;SDS011;9382;53.242;10.438;2022-10-17T08:26:50;3.67;;;2.70;;
18505;SDS011;9382;53.242;10.438;2022-10-17T08:29:19;5.40;;;2.60;;
18505;SDS011;9382;53.242;10.438;2022-10-17T08:31:45;5.30;;;2.73;;
18505;SDS011;9382;53.242;10.438;2022-10-17T08:34:12;3.87;;;2.80;;
18505;SDS011;9382;53.242;10.438;2022-10-17T08:36:39;4.50;;;2.63;;
18505;SDS011;9382;53.242;10.438;2022-10-17T08:39:06;5.33;;;3.03;;
18505;SDS011;9382;53.242;10.438;2022-10-17T08:41:36;4.33;;;2.63;;
18505;SDS011;9382;53.242;10.438;2022-10-17T08:44:13;3.57;;;2.73;;
18505;SDS011;9382;53.242;10.438;2022-10-17T08:46:56;3.63;;;2.50;;
18505;SDS011;9382;53.242;10.438;2022-10-17T08:49:29;7.47;;;3.20;;
18505;SDS011;9382;53.242;10.438;2022-10-17T08:52:04;4.60;;;2.67;;
18505;SDS011;9382;53.242;10.438;2022-10-17T08:54:37;5.13;;;3.00;;
18505;SDS011;9382;53.242;10.438;2022-10-17T08:57:10;2.80;;;2.60;;
18505;SDS011;9382;53.242;10.438;2022-10-17T08:59:40;3.47;;;2.53;;
18505;SDS011;9382;53.242;10.438;2022-10-17T09:02:14;5.03;;;2.70;;
18505;SDS011;9382;53.242;10.438;2022-10-17T09:04:53;3.10;;;2.50;;
18505;SDS011;9382;53.242;10.438;2022-10-17T09:07:36;4.93;;;2.80;;
18505;SDS011;9382;53.242;10.438;2022-10-17T09:10:11;3.87;;;2.70;;
18505;SDS011;9382;53.242;10.438;2022-10-17T09:12:43;4.23;;;2.63;;
18505;SDS011;9382;53.242;10.438;2022-10-17T09:15:30;3.53;;;2.70;;
18505;SDS011;9382;53.242;10.438;2022-10-17T09:18:08;5.87;;;2.77;;
18505;SDS011;9382;53.242;10.438;2022-10-17T09:20:39;4.97;;;2.60;;
18505;SDS011;9382;53.242;10.438;2022-10-17T09:23:10;4.93;;;3.00;;
18505;SDS011;9382;53.242;10.438;2022-10-17T09:25:41;3.53;;;2.50;;
18505;SDS011;9382;53.242;10.438;2022-10-17T09:28:13;2.87;;;2.50;;
18505;SDS011;9382;53.242;10.438;2022-10-17T09:30:43;3.83;;;2.37;;
18505;SDS011;9382;53.242;10.438;2022-10-17T09:33:13;3.47;;;2.53;;
18505;SDS011;9382;53.242;10.438;2022-10-17T09:35:40;2.43;;;2.00;;
18505;SDS011;9382;53.242;10.438;2022-10-17T09:38:11;6.43;;;2.60;;
18505;SDS011;9382;53.242;10.438;2022-10-17T09:40:41;4.20;;;2.80;;
18505;SDS011;9382;53.242;10.438;2022-10-17T09:43:10;2.60;;;2.40;;
18505;SDS011;9382;53.242;10.438;2022-10-17T09:45:39;3.23;;;2.40;;
18505;SDS011;9382;53.242;10.438;2022-10-17T09:48:14;4.60;;;2.63;;
18505;SDS011;9382;53.242;10.438;2022-10-17T09:50:49;4.70;;;2.50;;
18505;SDS011;9382;53.242;10.438;2022-10-17T09:53:17;5.43;;;2.60;;
18505;SDS011;9382;53.242;10.438;2022-10-17T09:55:49;4.27;;;2.40;;
18505;SDS011;9382;53.242;10.438;2022-10-17T09:58:20;4.43;;;2.70;;
18505;SDS011;9382;53.242;10.438;2022-10-17T10:00:49;8.73;;;2.90;;
18505;SDS011;9382;53.242;10.438;2022-10-17T10:03:16;3.13;;;2.30;;
18505;SDS011;9382;53.242;10.438;2022-10-17T10:05:56;6.03;;;2.40;;
18505;SDS011;9382;53.242;10.438;2022-10-17T10:08:25;5.27;;;2.60;;
18505;SDS011;9382;53.242;10.438;2022-10-17T10:10:58;2.80;;;2.47;;
18505;SDS011;9382;53.242;10.438;2022-10-17T10:13:28;2.63;;;2.40;;
18505;SDS011;9382;53.242;10.438;2022-10-17T10:16:11;2.50;;;2.30;;
18505;SDS011;9382;53.242;10.438;2022-10-17T10:18:41;4.80;;;2.70;;
18505;SDS011;9382;53.242;10.438;2022-10-17T10:21:09;4.43;;;2.30;;
18505;SDS011;9382;53.242;10.438;2022-10-17T10:23:38;6.43;;;2.50;;
18505;SDS011;9382;53.242;10.438;2022-10-17T10:28:59;3.87;;;2.57;;
18505;SDS011;9382;53.242;10.438;2022-10-17T10:31:31;3.77;;;2.30;;
18505;SDS011;9382;53.242;10.438;2022-10-17T10:34:01;4.90;;;2.50;;
18505;SDS011;9382;53.242;10.438;2022-10-17T10:36:48;4.70;;;2.53;;
18505;SDS011;9382;53.242;10.438;2022-10-17T10:39:32;4.87;;;3.10;;
18505;SDS011;9382;53.242;10.438;2022-10-17T10:42:07;4.40;;;2.67;;
18505;SDS011;9382;53.242;10.438;2022-10-17T10:44:43;2.83;;;2.33;;
18505;SDS011;9382;53.242;10.438;2022-10-17T10:47:17;2.93;;;2.63;;
18505;SDS011;9382;53.242;10.438;2022-10-17T10:49:49;2.80;;;2.50;;
18505;SDS011;9382;53.242;10.438;2022-10-17T10:52:23;4.03;;;2.70;;
18505;SDS011;9382;53.242;10.438;2022-10-17T10:54:58;4.30;;;2.73;;
18505;SDS011;9382;53.242;10.438;2022-10-17T10:57:32;5.53;;;2.37;;
18505;SDS011;9382;53.242;10.438;2022-10-17T11:00:03;3.53;;;2.60;;
18505;SDS011;9382;53.242;10.438;2022-10-17T11:02:41;4.07;;;2.40;;
18505;SDS011;9382;53.242;10.438;2022-10-17T11:05:15;4.60;;;2.50;;
18505;SDS011;9382;53.242;10.438;2022-10-17T11:07:49;2.80;;;2.53;;
18505;SDS011;9382;53.242;10.438;2022-10-17T11:10:21;4.50;;;2.70;;
18505;SDS011;9382;53.242;10.438;2022-10-17T11:12:53;5.00;;;2.60;;
18505;SDS011;9382;53.242;10.438;2022-10-17T11:15:26;2.80;;;2.40;;
18505;SDS011;9382;53.242;10.438;2022-10-17T11:18:01;5.00;;;2.73;;
18505;SDS011;9382;53.242;10.438;2022-10-17T11:20:33;4.17;;;2.60;;
18505;SDS011;9382;53.242;10.438;2022-10-17T11:23:11;4.63;;;2.50;;
18505;SDS011;9382;53.242;10.438;2022-10-17T11:25:45;5.80;;;2.90;;
18505;SDS011;9382;53.242;10.438;2022-10-17T11:28:13;3.80;;;2.53;;
18505;SDS011;9382;53.242;10.438;2022-10-17T11:30:43;4.33;;;2.60;;
18505;SDS011;9382;53.242;10.438;2022-10-17T11:33:16;4.80;;;3.10;;
18505;SDS011;9382;53.242;10.438;2022-10-17T11:35:49;7.37;;;3.00;;
18505;SDS011;9382;53.242;10.438;2022-10-17T11:38:20;5.53;;;2.90;;
18505;SDS011;9382;53.242;10.438;2022-10-17T11:40:52;4.80;;;2.70;;
18505;SDS011;9382;53.242;10.438;2022-10-17T11:43:26;3.90;;;2.80;;
18505;SDS011;9382;53.242;10.438;2022-10-17T11:45:57;7.10;;;2.77;;
18505;SDS011;9382;53.242;10.438;2022-10-17T11:48:29;5.17;;;2.70;;
18505;SDS011;9382;53.242;10.438;2022-10-17T11:51:03;7.83;;;2.80;;
18505;SDS011;9382;53.242;10.438;2022-10-17T11:53:36;7.17;;;2.80;;
18505;SDS011;9382;53.242;10.438;2022-10-17T11:56:16;6.37;;;3.00;;
18505;SDS011;9382;53.242;10.438;2022-10-17T11:58:49;4.87;;;3.20;;
18505;SDS011;9382;53.242;10.438;2022-10-17T12:01:23;3.97;;;3.00;;
18505;SDS011;9382;53.242;10.438;2022-10-17T12:04:06;2.90;;;2.70;;
18505;SDS011;9382;53.242;10.438;2022-10-17T12:06:48;4.53;;;2.67;;
18505;SDS011;9382;53.242;10.438;2022-10-17T12:09:26;3.60;;;2.90;;
18505;SDS011;9382;53.242;10.438;2022-10-17T12:12:01;3.37;;;2.87;;
18505;SDS011;9382;53.242;10.438;2022-10-17T12:14:39;4.67;;;2.90;;
18505;SDS011;9382;53.242;10.438;2022-10-17T12:17:24;4.20;;;2.70;;
18505;SDS011;9382;53.242;10.438;2022-10-17T12:22:53;5.53;;;3.10;;
18505;SDS011;9382;53.242;10.438;2022-10-17T12:25:21;4.93;;;3.07;;
18505;SDS011;9382;53.242;10.438;2022-10-17T12:28:01;4.10;;;3.27;;
18505;SDS011;9382;53.242;10.438;2022-10-17T12:30:49;4.87;;;3.17;;
18505;SDS011;9382;53.242;10.438;2022-10-17T12:33:18;4.07;;;3.67;;
18505;SDS011;9382;53.242;10.438;2022-10-17T12:35:49;5.70;;;3.43;;
18505;SDS011;9382;53.242;10.438;2022-10-17T12:38:23;4.17;;;3.03;;
18505;SDS011;9382;53.242;10.438;2022-10-17T12:40:58;5.33;;;3.20;;
18505;SDS011;9382;53.242;10.438;2022-10-17T12:49:20;5.47;;;3.33;;
18505;SDS011;9382;53.242;10.438;2022-10-17T12:55:12;4.73;;;3.10;;
18505;SDS011;9382;53.242;10.438;2022-10-17T12:57:47;8.80;;;3.70;;
18505;SDS011;9382;53.242;10.438;2022-10-17T13:00:20;4.27;;;3.20;;
18505;SDS011;9382;53.242;10.438;2022-10-17T13:02:51;3.53;;;3.07;;
18505;SDS011;9382;53.242;10.438;2022-10-17T13:05:22;4.17;;;3.03;;
18505;SDS011;9382;53.242;10.438;2022-10-17T13:07:52;3.50;;;3.20;;
18505;SDS011;9382;53.242;10.438;2022-10-17T13:10:23;5.73;;;3.30;;
18505;SDS011;9382;53.242;10.438;2022-10-17T13:12:53;6.77;;;3.33;;
18505;SDS011;9382;53.242;10.438;2022-10-17T13:15:26;4.03;;;3.30;;
18505;SDS011;9382;53.242;10.438;2022-10-17T13:17:54;6.60;;;3.50;;
18505;SDS011;9382;53.242;10.438;2022-10-17T13:20:23;25.70;;;4.20;;
18505;SDS011;9382;53.242;10.438;2022-10-17T13:22:52;7.30;;;3.50;;
18505;SDS011;9382;53.242;10.438;2022-10-17T13:25:20;5.07;;;3.43;;
18505;SDS011;9382;53.242;10.438;2022-10-17T13:27:48;6.43;;;3.60;;
18505;SDS011;9382;53.242;10.438;2022-10-17T13:30:20;8.20;;;3.57;;
18505;SDS011;9382;53.242;10.438;2022-10-17T13:32:49;6.00;;;3.80;;
18505;SDS011;9382;53.242;10.438;2022-10-17T13:35:21;5.60;;;3.30;;
18505;SDS011;9382;53.242;10.438;2022-10-17T13:37:50;4.63;;;3.33;;
18505;SDS011;9382;53.242;10.438;2022-10-17T13:40:20;5.83;;;3.77;;
18505;SDS011;9382;53.242;10.438;2022-10-17T13:42:50;6.80;;;3.70;;
18505;SDS011;9382;53.242;10.438;2022-10-17T13:45:26;9.23;;;4.23;;
18505;SDS011;9382;53.242;10.438;2022-10-17T13:47:55;7.90;;;3.50;;
18505;SDS011;9382;53.242;10.438;2022-10-17T13:50:23;5.43;;;3.80;;
18505;SDS011;9382;53.242;10.438;2022-10-17T13:53:06;5.13;;;4.50;;
18505;SDS011;9382;53.242;10.438;2022-10-17T13:55:49;7.57;;;4.57;;
18505;SDS011;9382;53.242;10.438;2022-10-17T13:58:21;9.00;;;4.33;;
18505;SDS011;9382;53.242;10.438;2022-10-17T14:00:48;7.97;;;4.60;;
18505;SDS011;9382;53.242;10.438;2022-10-17T14:03:16;5.40;;;4.70;;
18505;SDS011;9382;53.242;10.438;2022-10-17T14:05:57;9.40;;;5.10;;
18505;SDS011;9382;53.242;10.438;2022-10-17T14:08:34;7.10;;;4.77;;
18505;SDS011;9382;53.242;10.438;2022-10-17T14:11:11;6.13;;;5.07;;
18505;SDS011;9382;53.242;10.438;2022-10-17T14:13:41;8.10;;;5.37;;
18505;SDS011;9382;53.242;10.438;2022-10-17T14:16:13;7.07;;;5.20;;
18505;SDS011;9382;53.242;10.438;2022-10-17T14:18:40;7.63;;;5.40;;
18505;SDS011;9382;53.242;10.438;2022-10-17T14:21:11;10.23;;;5.60;;
18505;SDS011;9382;53.242;10.438;2022-10-17T14:23:45;9.70;;;5.87;;
18505;SDS011;9382;53.242;10.438;2022-10-17T14:26:13;7.00;;;5.60;;
18505;SDS011;9382;53.242;10.438;2022-10-17T14:28:44;5.93;;;5.20;;
18505;SDS011;9382;53.242;10.438;2022-10-17T14:31:19;6.70;;;5.77;;
18505;SDS011;9382;53.242;10.438;2022-10-17T14:33:50;8.43;;;5.80;;
18505;SDS011;9382;53.242;10.438;2022-10-17T14:36:18;6.57;;;5.53;;
18505;SDS011;9382;53.242;10.438;2022-10-17T14:38:45;11.23;;;5.40;;
18505;SDS011;9382;53.242;10.438;2022-10-17T14:41:21;8.80;;;5.40;;
18505;SDS011;9382;53.242;10.438;2022-10-17T14:43:52;7.43;;;5.57;;
18505;SDS011;9382;53.242;10.438;2022-10-17T14:46:20;9.90;;;5.93;;
18505;SDS011;9382;53.242;10.438;2022-10-17T14:48:50;8.17;;;5.73;;
18505;SDS011;9382;53.242;10.438;2022-10-17T14:51:19;7.33;;;5.47;;
18505;SDS011;9382;53.242;10.438;2022-10-17T14:53:58;7.37;;;5.30;;
18505;SDS011;9382;53.242;10.438;2022-10-17T14:56:27;6.70;;;4.73;;
18505;SDS011;9382;53.242;10.438;2022-10-17T14:59:02;5.60;;;4.87;;
18505;SDS011;9382;53.242;10.438;2022-10-17T15:01:31;8.13;;;5.17;;
18505;SDS011;9382;53.242;10.438;2022-10-17T15:03:58;10.47;;;5.30;;
18505;SDS011;9382;53.242;10.438;2022-10-17T15:06:26;6.40;;;4.87;;
18505;SDS011;9382;53.242;10.438;2022-10-17T15:08:54;7.07;;;5.17;;
18505;SDS011;9382;53.242;10.438;2022-10-17T15:11:20;5.30;;;4.80;;
18505;SDS011;9382;53.242;10.438;2022-10-17T15:13:47;7.47;;;4.93;;
18505;SDS011;9382;53.242;10.438;2022-10-17T15:16:17;5.63;;;5.00;;
18505;SDS011;9382;53.242;10.438;2022-10-17T15:18:46;8.20;;;5.17;;
18505;SDS011;9382;53.242;10.438;2022-10-17T15:21:13;8.27;;;5.10;;
18505;SDS011;9382;53.242;10.438;2022-10-17T15:23:41;9.53;;;5.23;;
18505;SDS011;9382;53.242;10.438;2022-10-17T15:26:10;8.53;;;5.30;;
18505;SDS011;9382;53.242;10.438;2022-10-17T15:28:40;9.20;;;5.43;;